Time;durP1;ratioP1;P1;durP2;ratioP2;P2;SDS_P1;SDS_P2;PMS_P1;PMS_P2;Temp;Humidity;BMP_temperature;BMP_pressure;BME280_temperature;BME280_humidity;BME280_pressure;Samples;Min_cycle;Max_cycle;Signal;HPM_P1;HPM_P2
2023/03/19 00:01:46;;;;;;;9.95;2.95;;;;;;;13.83;56.57;98611.59;5076013;28;20106;-48
2023/03/19 00:04:11;;;;;;;15.35;3.38;;;;;;;13.77;56.98;98604.56;5075952;28;20110;-50
2023/03/19 00:06:37;;;;;;;10.18;2.88;;;;;;;13.63;57.38;98609.19;5075826;28;20024;-51
2023/03/19 00:09:03;;;;;;;14.35;2.83;;;;;;;13.56;58.30;98611.09;5094051;28;20028;-51
2023/03/19 00:11:29;;;;;;;13.52;3.10;;;;;;;13.51;58.49;98601.22;5093967;28;20059;-51
2023/03/19 00:13:55;;;;;;;13.55;3.53;;;;;;;13.44;58.77;98607.59;5093922;28;20584;-50
2023/03/19 00:16:20;;;;;;;14.38;3.55;;;;;;;13.43;59.16;98612.06;5075683;28;20055;-51
2023/03/19 00:18:46;;;;;;;13.93;3.33;;;;;;;13.43;59.34;98608.63;5093752;28;20111;-51
2023/03/19 00:21:13;;;;;;;6.32;2.40;;;;;;;13.33;59.45;98617.84;5075610;28;20078;-51
2023/03/19 00:23:38;;;;;;;9.65;2.88;;;;;;;13.26;60.12;98616.28;5075617;28;20123;-51
2023/03/19 00:26:04;;;;;;;18.23;3.95;;;;;;;13.24;60.47;98611.25;5093694;28;20523;-51
2023/03/19 00:28:30;;;;;;;8.52;2.40;;;;;;;13.25;60.61;98623.38;5075488;28;20028;-51
2023/03/19 00:30:56;;;;;;;9.63;2.40;;;;;;;13.25;60.48;98623.38;5093791;28;20512;-51
2023/03/19 00:33:22;;;;;;;15.82;3.20;;;;;;;13.18;60.91;98622.66;5075511;28;20386;-51
2023/03/19 00:35:47;;;;;;;14.00;3.20;;;;;;;13.18;61.09;98622.66;5075308;28;20034;-51
2023/03/19 00:38:13;;;;;;;8.52;2.85;;;;;;;13.26;61.04;98627.66;5075163;28;20092;-51
2023/03/19 00:40:39;;;;;;;10.52;2.95;;;;;;;13.20;61.41;98620.63;5093382;28;20397;-51
2023/03/19 00:43:05;;;;;;;6.75;2.42;;;;;;;13.19;61.67;98629.53;5093320;28;20509;-51
2023/03/19 00:45:30;;;;;;;7.15;2.47;;;;;;;13.21;61.90;98624.03;5093318;28;20378;-51
2023/03/19 00:47:56;;;;;;;10.85;2.95;;;;;;;13.22;61.75;98628.28;5093189;28;20035;-51
2023/03/19 00:50:24;;;;;;;15.23;3.00;;;;;;;13.23;62.00;98620.16;5092952;28;20051;-51
2023/03/19 00:52:51;;;;;;;15.70;4.05;;;;;;;13.21;62.30;98630.13;5074992;28;20052;-51
2023/03/19 00:55:17;;;;;;;7.88;1.98;;;;;;;13.17;62.11;98621.03;5074941;28;20027;-51
2023/03/19 00:57:42;;;;;;;13.50;2.80;;;;;;;13.12;62.65;98623.50;5093067;28;20055;-51
2023/03/19 01:00:09;;;;;;;12.52;2.80;;;;;;;13.11;62.51;98616.63;5074762;28;20080;-51
2023/03/19 01:02:35;;;;;;;9.07;2.83;;;;;;;13.06;63.08;98622.56;5093040;28;20035;-51
2023/03/19 01:05:01;;;;;;;19.13;3.00;;;;;;;13.06;63.54;98624.38;5093168;28;20024;-51
2023/03/19 01:07:26;;;;;;;10.18;3.47;;;;;;;13.07;63.23;98623.38;5092926;28;20457;-51
2023/03/19 01:09:52;;;;;;;9.88;2.10;;;;;;;13.08;63.22;98632.88;5074068;28;20131;-51
2023/03/19 01:12:18;;;;;;;12.75;3.55;;;;;;;13.03;63.21;98630.09;5074588;28;20020;-51
2023/03/19 01:14:44;;;;;;;8.60;2.70;;;;;;;12.98;63.50;98628.91;5074622;28;20181;-51
2023/03/19 01:17:10;;;;;;;14.10;3.15;;;;;;;13.05;65.58;98636.75;5074521;28;20568;-51
2023/03/19 01:19:35;;;;;;;8.65;2.88;;;;;;;13.09;64.10;98623.97;5092583;28;20020;-51
2023/03/19 01:22:03;;;;;;;9.55;2.67;;;;;;;13.08;63.47;98623.16;5074396;28;20488;-51
2023/03/19 01:24:30;;;;;;;16.38;3.15;;;;;;;13.09;63.51;98623.97;5092577;28;20023;-51
2023/03/19 01:26:56;;;;;;;16.33;3.03;;;;;;;13.12;63.67;98640.16;5074587;28;20038;-51
2023/03/19 01:29:21;;;;;;;13.52;2.58;;;;;;;13.17;63.21;98632.38;5092518;28;20028;-51
2023/03/19 01:31:47;;;;;;;14.35;3.00;;;;;;;13.17;62.72;98637.66;5092484;28;20016;-51
2023/03/19 01:34:12;;;;;;;16.77;3.50;;;;;;;13.17;62.56;98631.56;5074229;28;20032;-50
2023/03/19 01:36:38;;;;;;;12.32;3.28;;;;;;;13.23;62.08;98646.50;5074155;28;20435;-51
2023/03/19 01:39:04;;;;;;;11.70;3.17;;;;;;;13.28;61.43;98644.03;5074098;28;20034;-51
2023/03/19 01:41:29;;;;;;;10.98;3.72;;;;;;;13.23;61.45;98646.50;5074079;28;20028;-51
2023/03/19 01:43:55;;;;;;;11.05;3.00;;;;;;;13.34;61.47;98652.91;5074108;28;20055;-50
2023/03/19 01:46:35;;;;;;;13.60;2.90;;;;;;;13.38;61.10;98651.44;5092197;28;20073;-50
2023/03/19 01:49:05;;;;;;;8.85;2.47;;;;;;;13.31;61.06;98645.47;5073824;28;20038;-51
2023/03/19 01:51:37;;;;;;;8.43;2.60;;;;;;;13.28;61.09;98645.84;5092133;28;20038;-50
2023/03/19 01:54:06;;;;;;;11.38;3.33;;;;;;;13.38;61.38;98640.91;5074328;28;20032;-50
2023/03/19 01:56:35;;;;;;;12.43;3.35;;;;;;;13.50;60.67;98646.25;5073920;28;20031;-51
2023/03/19 01:59:33;;;;;;;10.27;2.17;;;;;;;13.61;60.03;98642.91;5073862;28;20564;-51
2023/03/19 02:02:12;;;;;;;8.43;2.55;;;;;;;13.62;59.66;98649.75;5068061;28;20036;-50
2023/03/19 02:04:40;;;;;;;13.73;2.90;;;;;;;13.67;59.32;98644.66;5092055;28;20157;-50
2023/03/19 02:07:08;;;;;;;12.02;3.05;;;;;;;13.74;59.53;98641.91;5092001;28;20027;-50
2023/03/19 02:09:35;;;;;;;11.73;2.97;;;;;;;13.81;59.22;98641.84;5073805;28;20032;-51
2023/03/19 02:12:01;;;;;;;11.75;2.30;;;;;;;13.86;58.77;98650.69;5073694;28;20020;-51
2023/03/19 02:14:27;;;;;;;9.13;3.33;;;;;;;13.90;58.40;98643.16;5091959;28;20023;-51
2023/03/19 02:16:54;;;;;;;14.02;2.55;;;;;;;13.93;58.16;98635.59;5091851;28;20028;-50
2023/03/19 02:19:49;;;;;;;7.90;2.78;;;;;;;13.88;58.57;98634.66;5074198;28;20103;-51
2023/03/19 02:22:18;;;;;;;15.52;3.25;;;;;;;13.81;58.64;98637.38;5057919;28;20044;-50
2023/03/19 02:24:58;;;;;;;14.80;2.67;;;;;;;13.74;58.65;98648.03;5096041;28;20115;-51
2023/03/19 02:27:24;;;;;;;9.68;2.53;;;;;;;13.67;58.68;98652.56;5077821;28;20107;-51
2023/03/19 02:29:50;;;;;;;10.13;3.40;;;;;;;13.59;59.03;98640.47;5077926;28;20161;-51
2023/03/19 02:32:15;;;;;;;15.93;2.65;;;;;;;13.55;59.00;98643.78;5095884;28;20019;-51
2023/03/19 02:34:42;;;;;;;14.25;2.83;;;;;;;13.47;59.62;98650.16;5095842;28;20115;-51
2023/03/19 02:37:14;;;;;;;13.82;2.70;;;;;;;13.44;59.83;98653.22;5096096;28;20036;-50
2023/03/19 02:39:53;;;;;;;14.75;2.90;;;;;;;13.46;59.77;98648.53;5077511;28;20161;-51
2023/03/19 02:42:21;;;;;;;8.95;2.25;;;;;;;13.45;59.45;98643.50;5095971;28;20394;-50
2023/03/19 02:44:47;;;;;;;8.00;1.92;;;;;;;13.44;60.11;98642.69;5060923;28;20117;-51
2023/03/19 02:47:13;;;;;;;10.65;2.78;;;;;;;13.48;59.48;98637.75;5077428;28;20062;-52
2023/03/19 02:49:38;;;;;;;11.60;2.50;;;;;;;13.43;59.88;98640.25;5095235;28;20055;-51
2023/03/19 02:52:04;;;;;;;11.50;3.58;;;;;;;13.35;59.92;98644.78;5095548;28;20035;-51
2023/03/19 02:54:30;;;;;;;12.45;2.33;;;;;;;13.37;60.08;98642.75;5077268;28;20065;-51
2023/03/19 02:56:55;;;;;;;11.50;2.85;;;;;;;13.39;60.32;98634.63;5077145;28;20024;-51
2023/03/19 02:59:21;;;;;;;11.27;2.35;;;;;;;13.43;59.89;98633.16;5077083;28;20020;-51
2023/03/19 03:01:47;;;;;;;11.90;2.63;;;;;;;13.38;60.35;98633.81;5077073;28;20020;-51
2023/03/19 03:04:15;;;;;;;10.93;2.50;;;;;;;13.38;60.35;98633.81;5095385;28;20035;-51
2023/03/19 03:06:42;;;;;;;10.75;2.28;;;;;;;13.41;60.09;98643.13;5077068;28;20062;-51
2023/03/19 03:09:08;;;;;;;10.38;2.70;;;;;;;13.36;60.36;98635.88;5095190;28;20032;-51
2023/03/19 03:11:33;;;;;;;10.38;2.70;;;;;;;13.45;60.20;98635.56;5095142;28;20091;-50
2023/03/19 03:13:59;;;;;;;16.88;3.17;;;;;;;13.39;60.28;98638.06;5095215;28;20062;-51
2023/03/19 03:16:25;;;;;;;8.00;2.00;;;;;;;13.41;60.49;98643.13;5076845;28;20024;-51
2023/03/19 03:18:50;;;;;;;12.05;2.97;;;;;;;13.40;60.35;98636.25;5060127;28;20023;-51
2023/03/19 03:21:20;;;;;;;11.85;3.00;;;;;;;13.43;60.24;98640.25;5095042;28;20385;-51
2023/03/19 03:23:47;;;;;;;8.02;2.70;;;;;;;13.42;60.55;98638.63;5094893;28;20020;-51
2023/03/19 03:26:12;;;;;;;8.52;3.88;;;;;;;13.41;60.81;98637.84;5077023;28;20027;-50
2023/03/19 03:28:38;;;;;;;15.60;3.67;;;;;;;13.37;60.76;98629.56;5094823;28;20032;-50
2023/03/19 03:31:04;;;;;;;12.50;3.42;;;;;;;13.45;60.85;98635.56;5094827;28;20024;-51
2023/03/19 03:33:30;;;;;;;13.27;3.83;;;;;;;13.54;60.51;98628.97;5094206;28;20024;-51
2023/03/19 03:35:56;;;;;;;17.70;3.75;;;;;;;13.61;60.02;98632.34;5094711;28;20508;-51
2023/03/19 03:38:22;;;;;;;13.18;3.92;;;;;;;13.61;60.12;98621.78;5059764;28;20024;-51
2023/03/19 03:40:52;;;;;;;17.33;2.90;;;;;;;13.60;59.83;98628.09;5094547;28;20393;-51
2023/03/19 03:43:19;;;;;;;11.73;3.33;;;;;;;13.57;60.18;98623.25;5094894;28;20028;-51
2023/03/19 03:45:46;;;;;;;12.00;3.53;;;;;;;13.56;59.94;98619.84;5076549;28;20588;-51
2023/03/19 03:48:12;;;;;;;9.38;2.97;;;;;;;13.54;59.92;98623.69;5094499;28;20034;-51
2023/03/19 03:50:38;;;;;;;11.52;2.63;;;;;;;13.54;59.66;98623.69;5059404;28;20040;-51
2023/03/19 03:53:04;;;;;;;6.70;1.67;;;;;;;13.54;59.39;98629.78;5076168;28;20020;-51
2023/03/19 03:55:30;;;;;;;16.30;3.50;;;;;;;13.50;59.51;98626.00;5076086;28;20028;-51
2023/03/19 03:57:57;;;;;;;7.88;2.30;;;;;;;13.50;59.80;98626.00;5094312;28;20507;-51
2023/03/19 04:00:23;;;;;;;15.18;4.65;;;;;;;13.49;59.73;98628.84;5075952;28;20089;-51
2023/03/19 04:02:49;;;;;;;14.63;3.78;;;;;;;13.52;59.52;98631.03;5075973;28;20028;-51
2023/03/19 04:05:16;;;;;;;9.50;2.53;;;;;;;13.55;59.68;98633.22;5076315;28;20032;-51
2023/03/19 04:07:42;;;;;;;9.20;3.20;;;;;;;13.53;59.49;98640.56;5094005;28;20028;-51
2023/03/19 04:10:10;;;;;;;15.48;4.43;;;;;;;13.49;59.11;98655.19;5093956;28;20020;-51
2023/03/19 04:12:36;;;;;;;13.52;3.20;;;;;;;13.41;59.30;98648.38;5094211;28;20385;-51
2023/03/19 04:15:03;;;;;;;9.55;3.05;;;;;;;13.48;59.60;98643.88;5093877;28;20028;-51
2023/03/19 04:17:29;;;;;;;16.10;4.07;;;;;;;13.61;59.29;98650.81;5093921;28;20025;-51
2023/03/19 04:19:55;;;;;;;11.25;3.17;;;;;;;13.68;58.68;98656.00;5093782;28;20024;-51
2023/03/19 04:22:21;;;;;;;7.55;2.47;;;;;;;13.71;58.82;98653.72;5075576;28;20028;-51
2023/03/19 04:24:46;;;;;;;12.10;4.05;;;;;;;13.78;58.80;98659.75;5093667;28;20103;-50
2023/03/19 04:27:12;;;;;;;11.20;4.50;;;;;;;13.85;58.35;98658.84;5093688;28;20046;-51
2023/03/19 04:29:38;;;;;;;16.20;4.10;;;;;;;13.91;58.18;98657.97;5075474;28;20588;-50
2023/03/19 04:32:04;;;;;;;20.42;5.78;;;;;;;13.93;57.75;98655.91;5075477;28;20054;-51
2023/03/19 04:34:30;;;;;;;5.57;1.90;;;;;;;13.86;57.81;98655.97;5075403;28;20497;-51
2023/03/19 04:36:57;;;;;;;10.05;2.60;;;;;;;13.75;58.20;98664.66;5093771;28;20095;-51
2023/03/19 04:39:23;;;;;;;9.35;3.08;;;;;;;13.65;58.26;98659.09;5093422;28;20053;-50
2023/03/19 04:41:49;;;;;;;9.85;3.78;;;;;;;13.61;58.87;98658.72;5093368;28;20034;-51
2023/03/19 04:44:14;;;;;;;10.18;2.90;;;;;;;13.66;58.83;98664.16;5074896;28;20024;-51
2023/03/19 04:46:40;;;;;;;14.60;3.80;;;;;;;13.71;59.23;98669.53;5074542;28;20485;-51
2023/03/19 04:49:07;;;;;;;11.30;4.72;;;;;;;13.75;58.98;98668.09;5092930;28;20038;-51
2023/03/19 04:51:32;;;;;;;9.07;3.28;;;;;;;13.75;59.22;98668.09;5093503;28;20024;-51
2023/03/19 04:53:58;;;;;;;10.68;2.70;;;;;;;13.75;58.77;98665.44;5093322;28;20515;-50
2023/03/19 04:56:24;;;;;;;11.10;3.22;;;;;;;13.66;58.89;98664.16;5074937;28;20557;-50
2023/03/19 04:58:50;;;;;;;13.18;3.05;;;;;;;13.64;59.24;98654.81;5074831;28;20493;-51
2023/03/19 05:01:16;;;;;;;12.32;2.72;;;;;;;13.62;59.30;98673.50;5093078;28;20020;-51
2023/03/19 05:03:41;;;;;;;7.63;2.38;;;;;;;13.58;59.43;98672.31;5093005;28;20066;-51
2023/03/19 05:06:07;;;;;;;11.55;3.75;;;;;;;13.52;60.00;98675.84;5093023;28;20016;-51
2023/03/19 05:08:33;;;;;;;12.77;3.00;;;;;;;13.56;60.08;98677.00;5093020;28;20020;-51
2023/03/19 05:10:58;;;;;;;10.10;3.13;;;;;;;13.65;59.98;98675.72;5074895;28;20036;-51
2023/03/19 05:13:24;;;;;;;13.32;2.42;;;;;;;13.70;59.92;98672.41;5074625;28;20024;-51
2023/03/19 05:15:53;;;;;;;9.93;4.18;;;;;;;13.71;59.74;98676.66;5092769;28;20427;-51
2023/03/19 05:18:18;;;;;;;6.85;2.60;;;;;;;13.71;59.78;98669.53;5092685;28;20156;-51
2023/03/19 05:20:44;;;;;;;10.85;4.05;;;;;;;13.68;59.61;98674.44;5092604;28;20054;-51
2023/03/19 05:23:10;;;;;;;9.77;2.88;;;;;;;13.68;59.88;98670.00;5092628;28;20052;-51
2023/03/19 05:25:35;;;;;;;9.65;3.08;;;;;;;13.66;60.06;98674.69;5092610;28;20016;-51
2023/03/19 05:28:02;;;;;;;6.28;2.85;;;;;;;13.67;60.08;98671.00;5074383;28;20119;-51
2023/03/19 05:30:29;;;;;;;14.00;3.75;;;;;;;13.66;59.93;98672.06;5074344;28;20024;-51
2023/03/19 05:32:56;;;;;;;10.52;3.38;;;;;;;13.61;59.99;98668.47;5092488;28;20063;-51
2023/03/19 05:35:22;;;;;;;11.20;3.38;;;;;;;13.59;60.32;98676.59;5074214;28;20440;-51
2023/03/19 05:37:48;;;;;;;10.60;4.28;;;;;;;13.58;60.34;98667.06;5092368;28;20486;-51
2023/03/19 05:40:13;;;;;;;8.43;3.35;;;;;;;13.55;60.30;98672.78;5092268;28;20107;-51
2023/03/19 05:42:39;;;;;;;8.82;3.55;;;;;;;13.44;60.54;98674.31;5074098;28;20055;-51
2023/03/19 05:45:05;;;;;;;15.85;4.47;;;;;;;13.34;60.90;98680.09;5092598;28;20017;-51
2023/03/19 05:47:30;;;;;;;7.35;3.35;;;;;;;13.37;61.22;98670.94;5074030;28;20020;-51
2023/03/19 05:49:56;;;;;;;13.45;3.67;;;;;;;13.41;61.24;98673.94;5073795;28;20040;-51
2023/03/19 05:52:22;;;;;;;18.15;4.32;;;;;;;13.38;61.36;98668.09;5074001;28;20039;-51
2023/03/19 05:54:49;;;;;;;9.00;3.60;;;;;;;13.33;61.47;98673.19;5092147;28;20394;-51
2023/03/19 05:57:15;;;;;;;12.98;4.35;;;;;;;13.33;61.48;98681.09;5091941;28;20016;-51
2023/03/19 05:59:41;;;;;;;16.10;3.58;;;;;;;13.25;61.37;98673.44;5092018;28;20023;-51
2023/03/19 06:02:07;;;;;;;9.70;3.72;;;;;;;13.18;61.89;98688.53;5092060;28;20024;-51
2023/03/19 06:04:33;;;;;;;10.32;2.83;;;;;;;13.16;61.98;98687.94;5092039;28;20020;-51
2023/03/19 06:06:58;;;;;;;13.88;4.88;;;;;;;13.13;62.51;98681.25;5073865;28;20241;-51
2023/03/19 06:09:24;;;;;;;9.27;2.90;;;;;;;13.09;62.20;98692.47;5091969;28;20031;-51
2023/03/19 06:11:49;;;;;;;13.20;3.92;;;;;;;12.99;62.80;98690.31;5073800;28;20507;-51
2023/03/19 06:14:15;;;;;;;17.13;4.22;;;;;;;13.03;63.08;98690.69;5091951;28;20035;-51
2023/03/19 06:16:41;;;;;;;9.98;4.20;;;;;;;13.10;62.85;98694.06;5073719;28;20081;-51
2023/03/19 06:19:07;;;;;;;7.32;3.47;;;;;;;13.12;62.79;98700.75;5073646;28;20016;-51
2023/03/19 06:21:33;;;;;;;9.98;4.07;;;;;;;13.17;62.80;98700.09;5092056;28;20024;-51
2023/03/19 06:23:58;;;;;;;14.65;5.63;;;;;;;13.19;62.68;98708.59;5092090;28;20576;-51
2023/03/19 06:26:24;;;;;;;11.23;4.57;;;;;;;13.26;62.50;98700.59;5073559;28;20059;-51
2023/03/19 06:28:50;;;;;;;10.43;4.40;;;;;;;13.28;62.43;98709.94;5073629;28;20028;-51
2023/03/19 06:31:16;;;;;;;7.55;3.15;;;;;;;13.29;61.84;98719.47;5091680;28;20485;-51
2023/03/19 06:33:41;;;;;;;12.40;3.50;;;;;;;13.26;61.77;98711.16;5091736;28;20107;-51
2023/03/19 06:36:07;;;;;;;13.35;3.30;;;;;;;13.15;62.33;98718.75;5091709;28;20454;-51
2023/03/19 06:38:34;;;;;;;12.75;3.55;;;;;;;13.12;62.44;98724.47;5073421;28;20493;-51
2023/03/19 06:41:00;;;;;;;11.90;4.07;;;;;;;13.18;62.63;98720.97;5091618;28;20016;-51
2023/03/19 06:43:26;;;;;;;8.90;3.45;;;;;;;13.18;62.39;98725.44;5091914;28;20078;-51
2023/03/19 06:45:52;;;;;;;7.90;2.33;;;;;;;13.18;62.21;98735.97;5073506;28;20505;-51
2023/03/19 06:48:17;;;;;;;5.97;2.65;;;;;;;13.11;62.36;98743.13;5073456;28;20111;-51
2023/03/19 06:50:45;;;;;;;11.25;3.22;;;;;;;12.96;62.61;98749.50;5091319;28;20127;-51
2023/03/19 06:53:11;;;;;;;11.30;3.88;;;;;;;13.05;63.27;98733.44;5091795;28;20020;-51
2023/03/19 06:55:37;;;;;;;13.75;3.28;;;;;;;13.12;62.54;98732.38;5091571;28;20024;-51
2023/03/19 06:58:03;;;;;;;7.05;2.95;;;;;;;13.04;62.80;98752.88;5073425;28;20024;-51
2023/03/19 07:00:28;;;;;;;8.35;3.10;;;;;;;12.96;62.93;98762.69;5073116;28;20477;-51
2023/03/19 07:02:54;;;;;;;8.32;3.20;;;;;;;12.99;63.41;98756.16;5073283;28;20535;-51
2023/03/19 07:05:20;;;;;;;12.15;2.90;;;;;;;12.94;63.11;98746.28;5091459;28;20024;-51
2023/03/19 07:07:45;;;;;;;15.63;3.88;;;;;;;12.91;63.78;98748.53;5073298;28;20028;-51
2023/03/19 07:10:11;;;;;;;7.53;3.00;;;;;;;12.99;63.67;98751.69;5095256;28;20041;-51
2023/03/19 07:12:37;;;;;;;10.95;3.47;;;;;;;13.03;63.39;98762.63;5076957;28;20020;-51
2023/03/19 07:15:03;;;;;;;8.50;2.70;;;;;;;13.01;63.42;98748.06;5076925;28;20074;-51
2023/03/19 07:17:29;;;;;;;9.18;2.83;;;;;;;12.99;63.77;98764.88;5095113;28;20052;-51
2023/03/19 07:19:55;;;;;;;13.82;3.38;;;;;;;12.94;64.05;98761.28;5095014;28;20043;-51
2023/03/19 07:22:21;;;;;;;13.10;4.55;;;;;;;12.89;64.62;98759.28;5094969;28;20020;-51
2023/03/19 07:24:47;;;;;;;9.45;3.22;;;;;;;12.87;64.26;98766.59;5094964;28;20485;-51
2023/03/19 07:27:12;;;;;;;12.45;3.95;;;;;;;12.85;64.88;98766.00;5076908;28;20020;-51
2023/03/19 07:29:38;;;;;;;10.02;3.13;;;;;;;12.91;64.54;98761.69;5094846;28;20031;-50
2023/03/19 07:32:04;;;;;;;9.82;3.13;;;;;;;12.92;64.58;98765.97;5076626;28;20489;-51
2023/03/19 07:34:29;;;;;;;10.40;4.38;;;;;;;12.88;64.64;98765.56;5094771;28;20036;-51
2023/03/19 07:36:55;;;;;;;9.55;3.20;;;;;;;12.83;64.82;98773.28;5076507;28;20039;-51
2023/03/19 07:39:21;;;;;;;10.85;4.00;;;;;;;12.82;65.35;98776.97;5094610;28;20423;-51
2023/03/19 07:41:47;;;;;;;11.07;3.60;;;;;;;12.94;65.53;98785.00;5076452;28;20024;-51
2023/03/19 07:44:14;;;;;;;13.43;3.78;;;;;;;13.00;64.80;98789.41;5076371;28;20127;-51
2023/03/19 07:46:39;;;;;;;6.38;2.92;;;;;;;13.08;64.78;98780.41;5076324;28;20111;-51
2023/03/19 07:49:06;;;;;;;11.85;4.30;;;;;;;13.07;64.63;98800.69;5094214;28;20102;-51
2023/03/19 07:51:32;;;;;;;10.75;4.63;;;;;;;13.08;64.77;98790.97;5094691;28;20386;-51
2023/03/19 07:53:58;;;;;;;6.93;3.33;;;;;;;13.21;64.62;98795.34;5094489;28;20085;-51
2023/03/19 07:56:24;;;;;;;13.15;7.03;;;;;;;13.27;64.07;98783.94;5076163;28;20024;-51
2023/03/19 07:58:50;;;;;;;8.93;3.60;;;;;;;13.42;64.09;98788.91;5094177;28;20032;-51
2023/03/19 08:01:16;;;;;;;9.13;4.70;;;;;;;13.52;63.49;98791.84;5094243;28;20447;-51
2023/03/19 08:03:42;;;;;;;7.60;3.42;;;;;;;13.62;62.76;98786.88;5076044;28;20119;-51
2023/03/19 08:06:08;;;;;;;8.55;3.53;;;;;;;13.58;62.98;98797.09;5094197;28;20027;-50
2023/03/19 08:08:35;;;;;;;7.68;3.10;;;;;;;13.56;62.77;98785.13;5076234;28;20511;-50
2023/03/19 08:11:01;;;;;;;7.55;3.13;;;;;;;13.60;62.48;98788.94;5094184;28;20023;-51
2023/03/19 08:13:27;;;;;;;8.32;3.42;;;;;;;13.65;62.54;98798.84;5075932;28;20103;-50
2023/03/19 08:15:53;;;;;;;10.95;3.60;;;;;;;13.68;62.22;98796.59;5075855;28;20106;-51
2023/03/19 08:18:19;;;;;;;11.07;3.42;;;;;;;13.69;62.20;98802.66;5075750;28;20024;-51
2023/03/19 08:20:45;;;;;;;14.45;4.10;;;;;;;13.74;62.06;98795.72;5093724;28;20036;-51
2023/03/19 08:23:12;;;;;;;13.80;4.78;;;;;;;13.81;62.02;98816.75;5094071;28;20050;-51
2023/03/19 08:25:38;;;;;;;5.85;2.65;;;;;;;13.89;61.15;98800.63;5075612;28;20225;-51
2023/03/19 08:28:04;;;;;;;11.18;3.10;;;;;;;13.93;61.05;98815.00;5075645;28;20540;-51
2023/03/19 08:30:30;;;;;;;9.20;3.10;;;;;;;13.99;60.91;98802.78;5093652;28;20047;-51
2023/03/19 08:32:56;;;;;;;7.75;2.70;;;;;;;14.01;60.48;98799.94;5075474;28;20024;-50
2023/03/19 08:35:22;;;;;;;8.95;3.70;;;;;;;14.02;61.07;98804.97;5075556;28;20032;-51
2023/03/19 08:37:48;;;;;;;8.80;3.70;;;;;;;14.23;60.55;98808.22;5075411;28;20052;-51
2023/03/19 08:40:14;;;;;;;11.80;3.67;;;;;;;14.28;59.89;98787.22;5075247;28;20016;-51
2023/03/19 08:42:41;;;;;;;7.03;3.42;;;;;;;14.27;59.92;98806.75;5093691;28;20491;-50
2023/03/19 08:45:11;;;;;;;10.93;3.47;;;;;;;14.28;60.09;98809.13;5093362;28;20022;-50
2023/03/19 08:47:37;;;;;;;13.35;4.32;;;;;;;14.36;60.32;98798.28;5075813;28;20107;-50
2023/03/19 08:50:04;;;;;;;10.45;4.03;;;;;;;14.40;59.56;98811.84;5054907;28;20048;-50
2023/03/19 08:52:30;;;;;;;10.07;2.70;;;;;;;14.51;59.51;98812.94;5072988;28;20043;-50
2023/03/19 08:54:56;;;;;;;10.73;3.78;;;;;;;14.49;59.30;98812.38;5071617;28;20021;-51
2023/03/19 08:57:22;;;;;;;10.05;3.13;;;;;;;14.47;59.37;98828.41;5072896;28;20021;-51
2023/03/19 08:59:47;;;;;;;7.93;4.45;;;;;;;14.45;59.05;98821.75;5071471;28;20111;-51
2023/03/19 09:02:13;;;;;;;9.88;3.28;;;;;;;14.50;58.93;98825.31;5072719;28;20386;-51
2023/03/19 09:04:43;;;;;;;13.05;3.28;;;;;;;14.60;59.33;98803.69;5054836;28;20498;-50
2023/03/19 09:07:14;;;;;;;7.82;2.22;;;;;;;14.69;58.81;98818.22;5072634;28;20094;-50
2023/03/19 09:09:40;;;;;;;8.25;3.22;;;;;;;14.84;58.59;98831.00;5072894;28;20119;-51
2023/03/19 09:12:08;;;;;;;6.85;3.50;;;;;;;15.08;58.11;98825.81;5072519;28;20017;-50
2023/03/19 09:14:35;;;;;;;7.38;2.47;;;;;;;15.30;56.64;98829.53;5072578;28;20136;-51
2023/03/19 09:17:01;;;;;;;7.25;2.55;;;;;;;15.49;56.08;98834.72;5072392;28;20110;-51
2023/03/19 09:19:26;;;;;;;8.70;3.63;;;;;;;15.78;55.69;98828.56;5071131;28;20437;-48
2023/03/19 09:21:52;;;;;;;8.68;2.78;;;;;;;16.27;54.02;98835.41;5054510;28;20020;-48
2023/03/19 09:24:18;;;;;;;6.32;2.90;;;;;;;16.45;52.70;98824.66;5072357;28;20024;-48
2023/03/19 09:26:45;;;;;;;10.25;2.63;;;;;;;16.68;52.17;98828.25;5072207;28;20020;-48
2023/03/19 09:29:11;;;;;;;9.15;2.78;;;;;;;17.12;50.72;98824.06;5072199;28;20119;-48
2023/03/19 09:31:37;;;;;;;7.93;3.20;;;;;;;17.06;50.54;98822.34;5071930;28;20119;-48
2023/03/19 09:34:03;;;;;;;7.10;2.50;;;;;;;17.00;50.32;98822.50;5072078;28;20497;-48
2023/03/19 09:36:29;;;;;;;6.88;2.70;;;;;;;16.95;50.44;98832.00;5072075;28;20417;-48
2023/03/19 09:38:55;;;;;;;7.72;3.10;;;;;;;17.01;50.85;98830.25;5072069;28;20033;-48
2023/03/19 09:41:37;;;;;;;8.18;3.20;;;;;;;17.93;49.76;98831.72;5070760;28;20032;-48
2023/03/19 09:44:08;;;;;;;11.55;2.85;;;;;;;19.26;45.34;98815.66;5070820;28;20039;-48
2023/03/19 09:46:58;;;;;;;6.85;2.50;;;;;;;19.52;43.59;98813.97;5072101;28;20107;-48
2023/03/19 09:49:31;;;;;;;9.85;2.28;;;;;;;19.82;43.01;98823.22;5071154;28;20474;-48
2023/03/19 09:52:06;;;;;;;11.73;3.00;;;;;;;19.42;43.82;98821.88;5072226;28;20055;-48
2023/03/19 09:54:51;;;;;;;5.00;1.80;;;;;;;18.98;43.95;98809.53;5072013;28;20107;-48
2023/03/19 09:57:17;;;;;;;5.70;2.22;;;;;;;18.42;44.33;98836.31;5075234;28;20024;-48
2023/03/19 09:59:43;;;;;;;8.98;2.00;;;;;;;17.84;45.63;98824.41;5057166;28;20070;-48
2023/03/19 10:02:42;;;;;;;5.25;2.28;;;;;;;17.31;47.62;98826.50;5092322;28;20031;-48
2023/03/19 10:05:53;;;;;;;6.95;2.17;;;;;;;17.33;49.45;98833.16;5087151;28;20065;-48
2023/03/19 10:08:50;;;;;;;5.88;2.20;;;;;;;17.46;47.95;98807.34;4993613;28;20153;-48
2023/03/19 10:11:37;;;;;;;3.35;1.50;;;;;;;17.28;48.63;98834.91;5009911;28;20030;-48
2023/03/19 10:14:15;;;;;;;4.22;1.80;;;;;;;17.21;48.75;98834.28;5009770;28;20030;-48
2023/03/19 10:16:45;;;;;;;6.13;2.28;;;;;;;17.22;48.90;98838.53;5009769;28;20033;-48
2023/03/19 10:19:15;;;;;;;7.32;2.85;;;;;;;17.36;48.13;98823.91;5009650;28;20476;-48
2023/03/19 10:21:47;;;;;;;3.70;1.60;;;;;;;17.42;46.46;98830.91;4993321;28;20087;-48
2023/03/19 10:24:30;;;;;;;5.95;2.42;;;;;;;17.47;46.32;98823.03;5009698;28;20499;-48
2023/03/19 10:27:01;;;;;;;5.22;2.45;;;;;;;17.60;46.62;98821.91;5009760;28;20033;-48
2023/03/19 10:29:27;;;;;;;4.30;1.88;;;;;;;17.76;45.85;98833.53;4993279;28;20026;-48
2023/03/19 10:32:19;;;;;;;2.90;1.60;;;;;;;17.64;45.85;98830.19;5009689;28;20526;-48
2023/03/19 10:34:52;;;;;;;4.05;1.50;;;;;;;17.74;45.77;98823.16;5009731;28;20538;-48
2023/03/19 10:37:21;;;;;;;5.65;1.95;;;;;;;17.94;46.00;98827.19;5009705;28;20042;-48
2023/03/19 10:39:50;;;;;;;4.53;1.95;;;;;;;18.11;45.06;98827.97;4993124;28;20088;-49
2023/03/19 10:42:42;;;;;;;5.45;1.75;;;;;;;18.22;44.59;98836.06;5009610;28;20104;-48
2023/03/19 10:45:27;;;;;;;4.20;2.03;;;;;;;18.30;45.17;98832.97;5077360;28;20070;-48
2023/03/19 10:47:55;;;;;;;4.63;1.70;;;;;;;18.41;44.04;98824.09;5077500;28;20020;-48
2023/03/19 10:50:36;;;;;;;5.38;1.67;;;;;;;18.39;44.57;98820.88;5095365;28;20513;-49
2023/03/19 10:53:14;;;;;;;4.18;2.00;;;;;;;18.64;44.04;98811.56;5095644;28;20037;-48
2023/03/19 10:55:55;;;;;;;3.67;1.85;;;;;;;18.96;43.26;98822.28;5077352;28;20028;-48
2023/03/19 10:58:26;;;;;;;6.10;1.52;;;;;;;19.18;42.27;98826.75;5095576;28;20024;-48
2023/03/19 11:01:06;;;;;;;5.78;2.00;;;;;;;19.26;41.79;98827.09;5077090;28;20504;-48
2023/03/19 11:03:50;;;;;;;4.32;1.80;;;;;;;19.42;41.83;98829.84;5077210;28;20028;-48
2023/03/19 11:06:33;;;;;;;5.38;1.65;;;;;;;19.80;41.29;98820.84;5061925;28;20408;-48
2023/03/19 11:09:08;;;;;;;5.88;1.63;;;;;;;20.04;40.47;98815.91;5077115;28;20481;-48
2023/03/19 11:11:46;;;;;;;10.88;1.90;;;;;;;20.18;40.03;98813.56;5095195;28;20569;-48
2023/03/19 11:14:19;;;;;;;4.82;1.40;;;;;;;20.47;39.14;98807.81;5076978;28;20032;-47
2023/03/19 11:16:50;;;;;;;2.85;1.35;;;;;;;20.34;39.60;98804.59;5095115;28;20571;-46
2023/03/19 11:19:23;;;;;;;6.75;2.25;;;;;;;20.17;39.47;98817.31;5076791;28;20393;-46
2023/03/19 11:22:00;;;;;;;5.95;2.28;;;;;;;20.20;39.35;98810.63;5095079;28;20059;-46
2023/03/19 11:24:26;;;;;;;4.72;2.42;;;;;;;20.34;39.00;98809.91;5076778;28;20024;-46
2023/03/19 11:26:56;;;;;;;5.93;1.80;;;;;;;20.52;38.97;98810.50;5095243;28;20590;-46
2023/03/19 11:29:22;;;;;;;4.30;1.60;;;;;;;20.56;38.02;98808.91;5076705;28;20441;-46
2023/03/19 11:32:11;;;;;;;1.88;1.30;;;;;;;20.15;38.54;98806.91;5076631;28;20404;-46
2023/03/19 11:35:10;;;;;;;2.92;1.42;;;;;;;20.11;39.02;98803.16;5094885;28;20036;-46